Time;durP1;ratioP1;P1;durP2;ratioP2;P2;SDS_P1;SDS_P2;PMS_P1;PMS_P2;Temp;Humidity;BMP_temperature;BMP_pressure;BME280_temperature;BME280_humidity;BME280_pressure;Samples;Min_cycle;Max_cycle;Signal;HPM_P1;HPM_P2
2021/03/13 00:01:05;;;;;;;14.52;3.47;;;8.50;83.40;;;8.35;69.70;99154.22;5027291;28;20463;-88
2021/03/13 00:03:34;;;;;;;10.75;2.45;;;8.60;82.90;;;8.38;70.28;99159.22;5025901;28;20046;-88
2021/03/13 00:06:03;;;;;;;9.43;3.03;;;8.60;82.90;;;8.42;70.00;99155.09;5025593;28;20053;-88
2021/03/13 00:08:30;;;;;;;14.25;2.50;;;8.50;83.30;;;8.39;70.16;99150.03;5027278;28;20045;-88
2021/03/13 00:10:57;;;;;;;11.23;2.50;;;8.50;83.00;;;8.39;69.95;99141.91;5026958;28;20064;-88
2021/03/13 00:13:24;;;;;;;12.07;1.98;;;8.50;82.90;;;8.34;69.45;99137.13;5027055;28;20049;-88
2021/03/13 00:15:51;;;;;;;15.65;2.53;;;8.50;82.70;;;8.39;69.77;99139.19;5025860;28;20049;-88
2021/03/13 00:18:18;;;;;;;12.55;2.70;;;8.50;83.30;;;8.39;69.91;99133.78;5025491;28;20064;-88
2021/03/13 00:20:46;;;;;;;11.00;2.00;;;8.50;83.60;;;8.45;70.10;99132.97;5042093;28;20048;-88
2021/03/13 00:23:14;;;;;;;12.07;2.17;;;8.40;83.40;;;8.43;69.62;99131.53;5042082;28;20049;-88
2021/03/13 00:25:44;;;;;;;14.95;2.40;;;8.40;83.60;;;8.42;69.66;99125.28;5025423;28;20061;-88
2021/03/13 00:28:11;;;;;;;14.35;2.20;;;8.30;83.80;;;8.36;69.79;99116.06;5025338;28;20053;-89
2021/03/13 00:30:41;;;;;;;12.23;3.05;;;8.40;83.50;;;8.31;69.80;99115.00;5025452;28;20583;-88
2021/03/13 00:33:11;;;;;;;8.85;2.20;;;8.40;83.30;;;8.34;70.18;99110.00;5026240;28;20057;-88
2021/03/13 00:35:39;;;;;;;12.18;2.17;;;8.40;83.30;;;8.38;69.67;99111.25;5026227;28;20045;-88
2021/03/13 00:38:07;;;;;;;11.13;2.00;;;8.40;83.50;;;8.35;69.69;99103.53;5025193;28;20123;-88
2021/03/13 00:40:38;;;;;;;11.35;2.60;;;8.50;83.70;;;8.36;70.09;99091.66;5026338;28;20042;-88
2021/03/13 00:43:08;;;;;;;7.93;2.00;;;8.40;83.50;;;8.36;70.29;99088.94;5025189;28;20100;-88
2021/03/13 00:45:36;;;;;;;11.70;2.30;;;8.40;83.30;;;8.42;69.92;99090.03;5024991;28;20056;-88
2021/03/13 00:48:04;;;;;;;15.18;2.38;;;8.40;83.50;;;8.41;70.05;99082.91;5024969;28;20665;-88
2021/03/13 00:50:35;;;;;;;14.18;2.50;;;8.40;83.30;;;8.36;69.86;99080.00;5024979;28;20063;-88
2021/03/13 00:53:03;;;;;;;11.23;2.95;;;8.50;83.80;;;8.42;70.41;99079.19;5041712;28;20037;-88
2021/03/13 00:55:30;;;;;;;15.02;2.42;;;8.50;83.50;;;8.39;69.66;99074.97;5024893;28;20055;-88
2021/03/13 00:58:04;;;;;;;6.72;1.95;;;8.50;83.40;;;8.44;69.87;99070.84;5058102;28;20140;-89
2021/03/13 01:00:31;;;;;;;10.88;2.40;;;8.50;83.80;;;8.44;70.64;99066.25;5024677;28;20056;-88
2021/03/13 01:02:58;;;;;;;17.05;2.72;;;8.50;84.20;;;8.46;71.09;99066.06;5041592;28;20051;-87
2021/03/13 01:05:28;;;;;;;11.43;2.30;;;8.50;84.30;;;8.44;70.91;99066.25;5024603;28;20057;-88
2021/03/13 01:07:56;;;;;;;10.80;2.10;;;8.50;84.30;;;8.45;71.02;99054.38;5024738;28;20409;-89
2021/03/13 01:10:28;;;;;;;6.88;2.10;;;8.50;84.30;;;8.41;70.86;99050.38;5024793;28;20049;-88
2021/03/13 01:12:55;;;;;;;;;;;8.50;84.60;;;8.41;71.21;99050.38;5025223;28;20049;-88
2021/03/13 01:15:25;;;;;;;13.68;2.40;;;8.50;84.70;;;8.38;71.35;99039.97;5024598;28;19928;-88
2021/03/13 01:17:54;;;;;;;9.15;2.30;;;8.50;84.70;;;8.42;71.79;99033.09;5024518;28;20076;-89
2021/03/13 01:20:23;;;;;;;13.43;2.63;;;8.50;85.10;;;8.44;71.67;99033.72;5024455;28;20072;-89
2021/03/13 01:22:51;;;;;;;8.40;2.17;;;8.50;85.20;;;8.43;71.72;99031.22;5024296;28;20055;-89
2021/03/13 01:25:19;;;;;;;8.00;2.30;;;8.50;85.20;;;8.40;72.09;99016.19;5024403;28;20049;-89
2021/03/13 01:27:47;;;;;;;11.20;3.00;;;8.50;85.10;;;8.41;71.75;99007.88;5057446;28;20049;-88
2021/03/13 01:30:19;;;;;;;8.48;2.20;;;8.50;85.20;;;8.40;71.92;99013.47;5024115;28;20891;-89
2021/03/13 01:32:48;;;;;;;9.73;2.40;;;8.50;85.30;;;8.45;71.61;98999.31;5008248;28;20045;-88
2021/03/13 01:35:15;;;;;;;11.57;2.25;;;8.50;85.50;;;8.40;71.82;99000.75;5024458;28;20049;-88
2021/03/13 01:37:42;;;;;;;8.88;1.85;;;8.50;85.30;;;8.43;71.84;98995.97;5024320;28;20049;-88
2021/03/13 01:40:15;;;;;;;9.07;2.40;;;8.50;85.60;;;8.41;72.37;98982.59;5024307;28;20456;-88
2021/03/13 01:42:43;;;;;;;9.13;2.17;;;8.50;85.80;;;8.41;72.85;98985.31;5024407;28;20055;-88
2021/03/13 01:45:17;;;;;;;8.45;2.58;;;8.50;86.10;;;8.42;72.77;98981.59;5025499;28;20480;-88
2021/03/13 01:47:48;;;;;;;10.40;2.63;;;8.50;86.30;;;8.43;73.45;98977.81;5028157;28;20420;-88
2021/03/13 01:50:22;;;;;;;7.40;2.70;;;8.50;86.90;;;8.44;73.38;98973.25;5028260;28;20248;-87
2021/03/13 01:52:51;;;;;;;6.03;2.38;;;8.50;87.30;;;8.37;73.72;98965.09;5028318;28;20060;-88
2021/03/13 01:55:20;;;;;;;7.07;2.40;;;8.50;87.70;;;8.35;74.10;98956.34;5044765;28;20045;-88
2021/03/13 01:57:54;;;;;;;9.05;2.60;;;8.50;87.80;;;8.37;74.63;98954.25;5028163;28;20119;-88
2021/03/13 02:00:25;;;;;;;11.25;2.53;;;8.40;88.10;;;8.34;75.04;98944.66;5027973;28;20053;-88
2021/03/13 02:02:57;;;;;;;12.10;2.90;;;8.50;88.60;;;8.30;75.09;98939.84;5027947;28;20054;-88
2021/03/13 02:05:29;;;;;;;10.48;2.97;;;8.40;88.60;;;8.34;75.01;98930.25;5044627;28;20072;-88
2021/03/13 02:08:10;;;;;;;13.20;3.58;;;8.40;89.00;;;8.34;75.62;98919.41;5044377;28;20061;-88
2021/03/13 02:10:52;;;;;;;11.68;3.17;;;8.30;89.60;;;8.31;76.31;98909.00;5012848;28;20045;-88
2021/03/13 02:13:28;;;;;;;11.35;3.10;;;8.40;90.20;;;8.33;75.85;98915.06;5028145;28;20045;-89
2021/03/13 02:16:13;;;;;;;10.00;3.10;;;8.30;90.20;;;8.34;75.97;98905.84;5027650;28;20127;-88
2021/03/13 02:18:57;;;;;;;33.30;3.30;;;8.30;90.40;;;8.26;76.29;98903.38;5012943;28;20050;-88
2021/03/13 02:21:29;;;;;;;10.38;3.55;;;8.30;90.60;;;8.22;77.32;98883.97;5011387;28;20052;-88
2021/03/13 02:24:36;;;;;;;8.57;3.40;;;8.30;90.90;;;8.19;77.22;98884.41;5012466;28;20045;-88
2021/03/13 02:27:10;;;;;;;10.43;3.22;;;8.30;91.00;;;8.25;77.58;98878.16;5011094;28;20057;-89
2021/03/13 02:29:49;;;;;;;8.30;3.15;;;8.20;91.10;;;8.24;76.48;98865.63;5027805;28;20128;-88
2021/03/13 02:32:47;;;;;;;11.32;3.92;;;8.30;91.50;;;8.15;77.80;98862.31;5027621;28;20046;-89
2021/03/13 02:35:20;;;;;;;7.15;3.17;;;8.30;91.50;;;8.20;77.40;98843.53;5029004;28;20067;-88
2021/03/13 02:37:55;;;;;;;9.05;2.92;;;8.20;91.70;;;8.17;77.25;98832.31;5012062;28;20531;-89
2021/03/13 02:40:30;;;;;;;8.57;3.28;;;8.20;91.50;;;8.18;77.34;98836.66;5027498;28;20397;-88
2021/03/13 02:43:03;;;;;;;6.97;3.30;;;8.10;91.50;;;8.17;77.17;98824.19;5027665;28;20054;-88
2021/03/13 02:45:37;;;;;;;8.23;3.90;;;8.10;91.80;;;8.07;77.68;98821.88;5027422;28;20045;-88
2021/03/13 02:48:11;;;;;;;9.02;3.15;;;8.20;91.50;;;8.09;77.60;98814.41;5027342;28;20045;-88
2021/03/13 06:34:54;;;;;;;6.90;2.05;;;8.40;94.50;;;8.13;81.71;98235.84;5036484;23;20424;-81
2021/03/13 06:37:22;;;;;;;2.80;1.00;;;8.50;94.70;;;8.07;81.74;98231.31;5016281;28;20049;-82
2021/03/13 06:39:49;;;;;;;5.15;1.00;;;8.50;94.30;;;8.09;81.75;98229.22;5016931;28;20058;-83
2021/03/13 06:42:22;;;;;;;4.20;1.45;;;8.50;94.30;;;8.07;81.87;98225.88;5016772;28;20353;-83
2021/03/13 06:44:55;;;;;;;4.28;1.30;;;8.60;94.00;;;8.19;81.79;98224.09;5016411;28;20053;-83
2021/03/13 06:47:30;;;;;;;4.00;1.13;;;8.60;94.70;;;8.25;82.04;98221.53;5018060;28;20100;-82
2021/03/13 06:50:14;;;;;;;4.07;1.10;;;8.50;94.80;;;8.25;81.64;98208.81;5016488;28;20061;-81
2021/03/13 06:52:42;;;;;;;2.63;0.82;;;8.60;94.90;;;8.26;81.99;98217.75;5016326;28;20550;-82
2021/03/13 06:55:17;;;;;;;4.13;0.82;;;8.60;95.00;;;8.21;81.90;98211.16;5016296;28;20076;-80
2021/03/13 06:57:47;;;;;;;4.45;0.88;;;8.60;94.60;;;8.21;82.55;98205.72;5016397;28;20062;-85
2021/03/13 07:00:31;;;;;;;4.80;0.90;;;8.70;94.60;;;8.23;81.84;98186.53;5018455;28;20522;-83
2021/03/13 07:03:10;;;;;;;2.60;0.77;;;8.70;94.30;;;8.21;82.21;98178.63;5017972;28;20472;-82
2021/03/13 07:05:39;;;;;;;3.05;0.93;;;8.70;94.20;;;8.23;82.39;98192.78;5017175;28;20049;-81
2021/03/13 07:08:28;;;;;;;3.55;0.90;;;8.70;94.40;;;8.24;82.70;98212.56;5017061;28;20729;-81
2021/03/13 07:11:15;;;;;;;3.35;0.90;;;8.70;94.20;;;8.22;82.37;98199.28;5017704;28;20054;-80
2021/03/13 07:13:44;;;;;;;4.05;1.00;;;8.70;94.30;;;8.21;81.87;98197.59;5017710;28;20049;-80
2021/03/13 07:16:33;;;;;;;3.08;0.80;;;8.80;93.90;;;8.19;81.98;98180.75;5018497;28;20045;-81
2021/03/13 07:19:05;;;;;;;3.20;0.90;;;8.80;93.50;;;8.18;82.30;98189.91;5017962;28;20045;-81
2021/03/13 07:21:36;;;;;;;4.72;0.88;;;8.90;93.40;;;8.18;81.67;98175.53;5018177;28;20073;-81
2021/03/13 07:24:06;;;;;;;3.35;0.80;;;8.90;92.90;;;8.19;82.23;98185.34;5019079;28;20042;-81
2021/03/13 07:26:37;;;;;;;3.00;0.90;;;8.90;93.10;;;8.16;82.26;98212.88;5017592;28;20050;-81
2021/03/13 07:29:06;;;;;;;4.53;1.13;;;8.90;93.20;;;8.22;82.94;98226.38;5017290;28;20525;-81
2021/03/13 07:31:36;;;;;;;3.65;0.88;;;9.00;93.60;;;8.20;83.13;98250.13;5016984;28;20251;-82
2021/03/13 07:34:09;;;;;;;3.75;1.10;;;8.90;93.70;;;8.17;82.91;98223.50;5017757;28;20117;-81
2021/03/13 07:36:42;;;;;;;3.47;1.10;;;8.90;94.00;;;8.22;82.88;98287.84;5019283;28;20050;-80
2021/03/13 07:39:16;;;;;;;3.83;1.30;;;8.90;93.80;;;8.16;82.69;98284.13;5019646;28;20096;-80
2021/03/13 07:41:55;;;;;;;4.22;0.90;;;8.80;93.60;;;8.18;82.60;98292.03;5018855;28;20475;-80
2021/03/13 07:44:23;;;;;;;3.00;1.00;;;8.80;93.30;;;8.17;81.60;98258.72;5017020;28;20045;-80
2021/03/13 07:46:50;;;;;;;4.03;1.10;;;8.80;93.00;;;8.23;81.07;98252.38;5018338;28;20073;-80
2021/03/13 07:49:17;;;;;;;3.47;1.00;;;8.80;92.80;;;8.27;81.17;98249.25;5019252;28;20081;-80
2021/03/13 07:51:45;;;;;;;3.28;1.20;;;8.80;92.20;;;8.34;80.54;98263.53;5018914;28;20056;-80
2021/03/13 07:54:14;;;;;;;6.53;1.60;;;8.70;91.90;;;8.24;79.87;98247.78;5018479;28;20046;-81
2021/03/13 07:56:43;;;;;;;3.30;1.05;;;8.70;91.60;;;8.20;79.41;98250.13;5018170;28;20097;-80
2021/03/13 07:59:10;;;;;;;6.10;2.92;;;8.70;91.40;;;8.23;79.98;98260.53;5018380;28;20052;-81
2021/03/13 08:01:49;;;;;;;4.65;1.95;;;8.70;91.80;;;8.22;79.34;98249.91;5018775;28;20048;-80
2021/03/13 08:04:58;;;;;;;3.78;1.20;;;8.70;91.30;;;8.31;79.33;98262.09;5015086;28;20046;-85
2021/03/13 08:07:28;;;;;;;5.72;1.85;;;8.60;91.20;;;8.27;78.08;98277.16;5012466;28;20042;-84
2021/03/13 08:09:55;;;;;;;2.50;1.20;;;8.60;90.10;;;8.28;77.95;98280.69;5012330;28;20053;-84
2021/03/13 08:12:42;;;;;;;5.00;1.65;;;8.50;90.70;;;8.23;77.23;98267.84;5011474;28;20046;-85
2021/03/13 08:15:33;;;;;;;4.45;1.60;;;8.50;90.20;;;8.21;77.53;98259.91;5010265;28;20058;-84
2021/03/13 08:18:00;;;;;;;4.73;1.70;;;8.50;89.60;;;8.22;77.23;98277.84;5012436;28;20050;-82
2021/03/13 08:20:30;;;;;;;5.18;1.55;;;8.50;89.40;;;8.07;76.10;98274.63;5013560;28;20293;-82
2021/03/13 08:23:25;;;;;;;3.47;1.33;;;8.50;88.00;;;8.19;76.46;98282.88;5016551;28;20034;-82
2021/03/13 08:25:57;;;;;;;3.35;1.20;;;8.50;88.90;;;8.25;76.63;98292.81;4991198;28;20069;-82
2021/03/13 08:28:56;;;;;;;6.07;1.67;;;8.40;89.60;;;8.16;75.33;98289.56;5015448;28;20049;-83
2021/03/13 08:31:36;;;;;;;4.35;1.30;;;8.40;88.00;;;8.17;75.98;98293.94;5011872;28;20045;-86
2021/03/13 08:34:46;;;;;;;3.38;1.50;;;8.40;88.50;;;8.22;74.78;98307.66;5013941;28;20108;-83
2021/03/13 08:37:22;;;;;;;5.43;1.10;;;8.40;88.20;;;8.16;73.88;98294.16;5004177;28;20053;-82
2021/03/13 08:39:50;;;;;;;2.70;1.20;;;8.50;87.30;;;8.22;74.54;98310.38;5014171;28;20056;-83
2021/03/13 08:42:34;;;;;;;3.15;1.10;;;8.50;87.50;;;8.21;75.06;98300.56;5014557;28;20088;-84
2021/03/13 08:45:21;;;;;;;3.92;1.05;;;8.50;87.90;;;8.20;74.80;98307.03;5014256;28;20052;-84
2021/03/13 08:47:52;;;;;;;2.63;1.05;;;8.50;87.60;;;8.26;75.05;98299.06;5013368;28;20508;-82
2021/03/13 08:50:56;;;;;;;4.97;1.30;;;8.50;87.40;;;8.18;73.68;98314.53;5014468;28;20038;-82
2021/03/13 08:53:39;;;;;;;5.55;2.13;;;8.60;86.30;;;8.17;73.69;98322.91;5014675;28;20698;-82
2021/03/13 08:56:40;;;;;;;3.85;1.60;;;8.60;86.70;;;8.20;75.03;98317.84;5013473;28;20060;-82
2021/03/13 08:59:15;;;;;;;;;;;8.70;86.80;;;8.25;73.63;98324.50;5014596;28;20112;-83
2021/03/13 09:01:45;;;;;;;5.35;1.20;;;8.70;86.00;;;8.25;73.89;98319.91;5012840;28;19926;-81
2021/03/13 09:04:13;;;;;;;5.88;1.40;;;8.70;85.90;;;8.25;74.10;98317.22;5014208;28;20148;-82
2021/03/13 09:06:41;;;;;;;10.27;1.27;;;8.70;86.00;;;8.29;74.14;98314.88;5015688;28;20046;-82
2021/03/13 09:09:14;;;;;;;7.25;1.30;;;8.70;86.30;;;8.21;73.29;98319.53;5014098;28;20070;-82
2021/03/13 09:11:42;;;;;;;8.52;1.63;;;8.80;85.90;;;8.28;74.79;98305.94;5014463;28;20058;-82
2021/03/13 09:14:12;;;;;;;8.65;1.50;;;8.80;85.90;;;8.31;74.18;98308.16;5016062;28;20752;-84
2021/03/13 09:16:41;;;;;;;5.68;1.50;;;8.80;86.30;;;8.33;74.21;98313.38;5019606;28;20057;-83
2021/03/13 09:19:13;;;;;;;6.05;1.42;;;8.80;85.90;;;8.40;74.05;98319.56;5018050;28;20500;-82
2021/03/13 09:21:47;;;;;;;5.43;1.20;;;8.90;86.00;;;8.43;74.07;98319.13;5018217;28;20119;-84
2021/03/13 09:24:18;;;;;;;3.80;0.80;;;8.90;86.00;;;8.45;74.31;98308.88;5010626;28;20065;-83
2021/03/13 09:26:51;;;;;;;6.18;1.40;;;8.90;86.00;;;8.41;73.99;98313.94;5032035;28;20100;-84
2021/03/13 09:29:31;;;;;;;5.75;1.20;;;8.90;85.40;;;8.41;73.85;98307.66;5018695;28;20069;-83
2021/03/13 09:32:00;;;;;;;5.25;1.30;;;9.00;85.30;;;8.40;74.56;98306.00;5019545;28;20455;-83
2021/03/13 09:34:29;;;;;;;7.20;2.25;;;9.00;85.70;;;8.45;75.00;98303.47;5019933;28;20512;-83
2021/03/13 09:36:57;;;;;;;4.53;1.40;;;9.10;86.10;;;8.47;74.43;98305.94;5019276;28;20056;-84
2021/03/13 09:39:26;;;;;;;5.22;1.10;;;9.10;86.10;;;8.47;74.80;98289.69;5020915;28;20116;-84
2021/03/13 09:42:14;;;;;;;4.20;1.20;;;9.20;86.00;;;8.51;74.59;98280.03;5019338;28;20065;-83
2021/03/13 09:44:44;;;;;;;6.32;1.30;;;9.20;85.40;;;8.52;73.68;98284.44;5017546;28;20042;-85
2021/03/13 09:47:24;;;;;;;5.63;1.20;;;9.30;84.90;;;8.50;72.33;98284.66;5016434;28;20081;-83
2021/03/13 09:49:54;;;;;;;8.17;1.83;;;9.40;83.60;;;8.42;73.40;98293.09;5018381;28;20064;-83
2021/03/13 09:52:27;;;;;;;10.20;1.70;;;9.40;83.80;;;8.42;74.82;98284.97;5016551;28;20038;-83
2021/03/13 09:55:03;;;;;;;5.18;1.30;;;9.30;84.40;;;8.39;75.03;98294.31;5017300;28;20054;-82
2021/03/13 09:57:31;;;;;;;6.65;1.80;;;9.30;85.50;;;8.39;75.86;98283.47;5016104;28;20507;-80
2021/03/13 09:59:58;;;;;;;15.13;1.73;;;9.30;85.80;;;8.49;76.58;98269.44;5015855;28;20084;-82
2021/03/13 10:02:26;;;;;;;14.90;1.92;;;9.20;86.90;;;8.56;76.19;98272.88;5016578;28;20534;-82
2021/03/13 10:04:54;;;;;;;11.95;1.95;;;9.20;87.00;;;8.41;76.25;98281.44;5017639;28;20133;-82
2021/03/13 10:07:21;;;;;;;7.45;2.40;;;9.20;86.80;;;8.46;76.80;98278.03;5019485;28;20073;-82
2021/03/13 10:09:54;;;;;;;14.63;2.10;;;9.20;86.50;;;8.34;76.08;98271.66;5020999;28;20072;-82
2021/03/13 10:12:26;;;;;;;8.15;1.55;;;9.20;85.90;;;8.39;75.76;98285.38;5020065;28;20041;-84
2021/03/13 10:14:54;;;;;;;12.63;2.22;;;9.30;85.10;;;8.42;75.93;98293.09;5018872;28;20056;-82
2021/03/13 10:17:21;;;;;;;8.98;1.83;;;9.30;85.20;;;8.46;75.92;98282.63;5018892;28;20045;-82
2021/03/13 10:19:49;;;;;;;12.45;2.83;;;9.40;85.30;;;8.50;75.36;98262.97;5018045;28;20057;-82
2021/03/13 10:22:22;;;;;;;7.97;1.75;;;9.40;85.00;;;8.45;73.35;98281.78;5018967;28;20104;-81
2021/03/13 10:24:54;;;;;;;10.00;2.03;;;9.40;83.30;;;8.45;73.37;98273.66;5017049;28;20120;-81
2021/03/13 10:27:29;;;;;;;9.30;1.80;;;9.30;83.70;;;8.49;72.22;98266.75;5017617;28;20128;-83
2021/03/13 10:30:01;;;;;;;10.98;1.88;;;9.30;83.60;;;8.47;73.19;98276.94;5018041;28;20045;-81
2021/03/13 10:32:30;;;;;;;11.75;1.80;;;9.30;83.50;;;8.53;73.56;98267.94;5018391;28;20145;-81
2021/03/13 10:35:14;;;;;;;10.68;2.45;;;9.40;83.10;;;8.51;72.82;98275.47;5016457;28;20086;-80
2021/03/13 10:37:43;;;;;;;10.68;2.83;;;9.50;82.30;;;8.54;72.90;98275.00;5009941;28;20077;-82
2021/03/13 10:40:27;;;;;;;7.50;1.95;;;9.50;82.30;;;8.59;71.88;98274.34;5018730;28;20034;-82
2021/03/13 10:43:20;;;;;;;12.35;2.42;;;9.50;81.60;;;8.54;71.49;98272.28;5019959;28;20088;-83
2021/03/13 10:46:13;;;;;;;11.85;2.05;;;9.60;81.30;;;8.56;71.61;98289.16;5021222;28;20084;-84
2021/03/13 10:49:01;;;;;;;14.30;2.50;;;9.50;80.70;;;8.61;71.77;98285.78;5017150;28;20038;-84
2021/03/13 10:51:30;;;;;;;10.57;2.58;;;9.50;81.20;;;8.56;69.62;98272.06;5016321;28;20427;-84
2021/03/13 10:53:58;;;;;;;14.13;2.30;;;9.60;79.80;;;8.64;70.56;98273.66;5015980;28;20050;-84
2021/03/13 10:56:39;;;;;;;9.88;1.80;;;9.60;80.60;;;8.71;69.92;98268.97;5017098;28;20057;-83
2021/03/13 10:59:06;;;;;;;14.05;2.30;;;9.60;79.80;;;8.72;71.00;98270.63;5016210;28;20049;-83
2021/03/13 11:01:33;;;;;;;10.95;1.92;;;9.80;80.40;;;8.75;68.73;98253.91;5015904;28;20049;-83
2021/03/13 11:04:00;;;;;;;14.48;2.22;;;9.90;78.40;;;8.79;70.90;98255.09;5016229;28;20058;-83
2021/03/13 11:06:29;;;;;;;11.45;2.38;;;9.90;79.50;;;8.84;70.42;98263.38;5015311;28;20041;-82
2021/03/13 11:08:59;;;;;;;14.38;2.35;;;10.00;78.90;;;8.85;69.08;98254.16;5016397;28;20484;-82
2021/03/13 11:11:27;;;;;;;13.48;2.70;;;10.10;77.90;;;8.91;69.58;98241.56;5016607;28;20049;-82
2021/03/13 11:13:53;;;;;;;12.65;2.55;;;10.00;78.40;;;8.92;68.17;98268.47;5016633;28;20108;-81
2021/03/13 11:16:22;;;;;;;13.23;2.47;;;9.90;77.40;;;8.85;69.59;98299.44;5016131;28;20060;-82
2021/03/13 11:18:50;;;;;;;13.90;2.35;;;9.90;78.80;;;8.71;71.70;98307.75;5015718;28;20048;-82
2021/03/13 11:21:17;;;;;;;11.68;2.03;;;9.80;80.70;;;8.67;72.91;98317.41;5016726;28;20057;-82
2021/03/13 11:23:44;;;;;;;10.13;2.05;;;9.50;82.70;;;8.53;74.56;98294.19;5016842;28;20046;-82
2021/03/13 11:26:11;;;;;;;11.82;2.33;;;9.50;83.70;;;8.64;75.50;98295.34;5016005;28;20104;-82
2021/03/13 11:28:39;;;;;;;13.50;2.63;;;9.50;85.00;;;8.63;77.33;98277.44;5016858;28;20131;-82
2021/03/13 11:31:07;;;;;;;13.63;2.75;;;9.60;85.50;;;8.59;78.26;98275.16;5016444;28;20563;-84
2021/03/13 11:33:33;;;;;;;16.20;2.95;;;9.80;85.50;;;8.67;77.40;98270.50;5018172;28;20068;-82
2021/03/13 11:36:01;;;;;;;15.88;2.70;;;9.80;85.20;;;8.77;78.58;98262.63;5019332;28;20045;-82
2021/03/13 11:38:28;;;;;;;26.15;3.38;;;9.80;86.40;;;8.81;76.12;98266.53;5018002;28;20105;-83
2021/03/13 11:40:55;;;;;;;11.77;2.70;;;9.90;85.20;;;8.83;77.07;98267.13;5019150;28;20969;-82
2021/03/13 11:43:22;;;;;;;14.05;2.63;;;9.90;85.50;;;8.86;77.45;98255.84;5019391;28;20064;-82
2021/03/13 11:45:48;;;;;;;15.93;2.72;;;10.00;85.30;;;8.85;76.63;98243.31;5020069;28;20049;-82
2021/03/13 11:48:17;;;;;;;25.55;6.60;;;10.00;84.50;;;8.88;74.79;98269.16;5018251;28;20749;-82
2021/03/13 11:50:45;;;;;;;16.25;3.10;;;10.00;82.60;;;8.91;72.87;98258.69;5020200;28;20065;-83
2021/03/13 11:53:13;;;;;;;13.23;2.92;;;10.00;81.50;;;8.86;71.14;98285.66;5017437;28;20053;-82
2021/03/13 11:55:40;;;;;;;15.38;2.90;;;10.00;80.70;;;8.81;72.11;98282.81;5020983;28;20052;-82
2021/03/13 11:58:07;;;;;;;10.02;2.30;;;10.00;79.90;;;8.84;70.72;98273.41;5020040;28;20046;-82
2021/03/13 12:00:34;;;;;;;13.02;2.15;;;10.00;79.40;;;8.69;71.68;98287.34;5017946;28;20049;-82
2021/03/13 12:03:01;;;;;;;14.57;2.60;;;9.90;79.90;;;8.64;73.55;98289.91;5020576;28;20034;-83
2021/03/13 12:05:28;;;;;;;14.75;2.47;;;9.80;81.50;;;8.56;74.18;98261.22;5017343;28;20081;-82
2021/03/13 12:07:55;;;;;;;14.43;2.65;;;9.70;82.80;;;8.59;75.32;98269.72;5019451;28;20042;-82
2021/03/13 12:10:23;;;;;;;15.57;2.50;;;9.80;82.90;;;8.69;75.65;98260.25;5019525;28;20062;-83
2021/03/13 12:12:49;;;;;;;21.08;2.95;;;9.80;83.40;;;8.71;75.92;98258.13;5020438;28;20076;-83
2021/03/13 12:15:16;;;;;;;9.82;2.53;;;9.70;83.90;;;8.71;76.86;98252.69;5020433;28;20049;-83
2021/03/13 12:17:44;;;;;;;15.95;2.80;;;9.80;85.20;;;8.71;75.63;98247.28;5019234;28;20046;-82
2021/03/13 12:20:12;;;;;;;14.70;2.83;;;9.70;84.50;;;8.71;75.19;98228.28;5019171;28;20065;-82
2021/03/13 12:22:39;;;;;;;11.88;2.42;;;9.80;83.80;;;8.71;74.40;98241.84;5018608;28;20054;-82
2021/03/13 12:25:08;;;;;;;12.10;2.08;;;9.90;83.20;;;8.83;74.61;98231.88;5020594;28;20045;-83
2021/03/13 12:27:39;;;;;;;9.63;2.50;;;9.90;83.10;;;8.86;74.13;98225.19;5015275;28;20045;-82
2021/03/13 12:30:07;;;;;;;;;;;10.00;82.20;;;8.86;73.88;98223.28;5021158;28;20050;-82
2021/03/13 12:32:35;;;;;;;17.05;2.85;;;10.10;81.30;;;8.90;74.03;98208.19;5019971;28;19956;-82
2021/03/13 12:35:03;;;;;;;13.25;2.22;;;10.10;82.00;;;8.87;70.75;98196.97;5018387;28;20049;-83
2021/03/13 12:37:30;;;;;;;16.08;3.08;;;10.10;79.00;;;8.87;71.36;98178.84;5020609;28;20100;-84
2021/03/13 12:39:58;;;;;;;12.40;2.47;;;10.10;79.00;;;8.90;70.91;98219.06;5021014;28;20046;-81
2021/03/13 12:42:25;;;;;;;15.45;2.28;;;10.00;79.40;;;8.84;71.10;98247.09;5019520;28;20046;-83
2021/03/13 12:44:52;;;;;;;15.43;2.20;;;9.90;79.90;;;8.60;73.28;98279.53;5019363;28;20038;-82
2021/03/13 12:47:20;;;;;;;11.68;2.55;;;9.70;81.70;;;8.34;74.49;98287.91;5020746;28;20096;-83
2021/03/13 12:49:47;;;;;;;9.38;1.88;;;9.40;83.10;;;8.23;76.56;98252.38;5020710;28;20050;-82
2021/03/13 12:52:13;;;;;;;8.15;2.00;;;9.50;84.30;;;8.32;76.19;98266.47;5020603;28;20066;-82
2021/03/13 12:54:40;;;;;;;3.63;1.15;;;9.50;84.40;;;8.43;76.90;98272.22;5019447;28;20050;-82
2021/03/13 12:57:09;;;;;;;6.47;1.30;;;9.60;84.90;;;8.48;77.46;98275.91;5016855;28;20049;-83
2021/03/13 12:59:36;;;;;;;6.45;1.65;;;9.60;85.40;;;8.42;77.17;98279.53;5020905;28;20052;-82
2021/03/13 13:02:04;;;;;;;7.57;1.58;;;9.50;85.10;;;8.45;76.96;98298.03;5021164;28;20073;-82
2021/03/13 13:04:31;;;;;;;10.30;1.48;;;9.50;85.40;;;8.35;75.74;98295.00;5015210;28;20049;-83
2021/03/13 13:06:57;;;;;;;6.60;1.45;;;9.40;85.20;;;8.31;77.10;98307.34;5017681;28;20081;-83
2021/03/13 13:09:24;;;;;;;9.35;1.63;;;9.30;85.70;;;8.29;77.99;98306.75;5017598;28;20868;-83
2021/03/13 13:11:52;;;;;;;10.48;1.70;;;9.30;85.80;;;8.34;76.95;98307.72;5016423;28;20050;-82
2021/03/13 13:14:18;;;;;;;9.60;1.80;;;9.30;86.20;;;8.42;77.91;98320.19;5018565;28;20935;-83
2021/03/13 13:16:45;;;;;;;9.10;2.03;;;9.10;87.10;;;8.30;77.90;98321.94;5035194;28;20057;-82
2021/03/13 13:19:13;;;;;;;11.60;2.33;;;9.10;87.30;;;8.18;78.48;98309.13;5018963;28;20049;-83
2021/03/13 13:21:40;;;;;;;11.27;2.65;;;9.00;87.40;;;8.24;78.24;98296.56;5020046;28;20050;-83
2021/03/13 13:24:11;;;;;;;11.85;2.22;;;9.00;88.00;;;8.34;78.37;98304.16;5017945;28;20052;-83
2021/03/13 13:26:38;;;;;;;12.23;3.47;;;9.00;88.70;;;8.30;78.57;98294.84;5014540;28;20108;-83
2021/03/13 13:29:05;;;;;;;15.00;3.13;;;8.90;88.50;;;8.37;77.89;98301.03;5016598;28;20042;-83
2021/03/13 13:31:32;;;;;;;13.80;3.47;;;8.90;88.80;;;8.35;78.38;98312.09;5015090;28;20570;-83
2021/03/13 13:33:58;;;;;;;15.05;3.42;;;8.80;89.10;;;8.43;77.97;98311.00;5016064;28;20821;-83
2021/03/13 13:36:26;;;;;;;17.83;3.40;;;8.80;89.60;;;8.39;78.09;98315.19;5016968;28;20499;-83
2021/03/13 13:38:53;;;;;;;13.05;3.13;;;8.70;89.60;;;8.36;78.52;98343.56;5015329;28;20049;-83
2021/03/13 13:41:20;;;;;;;16.63;3.03;;;8.70;89.80;;;8.33;76.84;98348.59;5019209;28;20050;-84
2021/03/13 13:43:46;;;;;;;12.05;3.00;;;8.70;89.30;;;8.12;76.45;98353.38;5020132;28;20092;-84
2021/03/13 13:46:13;;;;;;;11.90;2.55;;;8.60;87.90;;;8.07;76.29;98344.25;5020289;28;20061;-83
2021/03/13 13:48:40;;;;;;;13.40;3.30;;;8.60;87.70;;;8.05;76.11;98311.97;5021879;28;20594;-83
2021/03/13 13:51:07;;;;;;;14.05;3.83;;;8.50;87.60;;;8.08;76.36;98311.53;5021881;28;20511;-83
2021/03/13 13:53:34;;;;;;;14.95;3.63;;;8.60;88.20;;;8.00;78.26;98309.13;5022738;28;20053;-83
2021/03/13 13:56:02;;;;;;;13.57;3.13;;;8.70;88.50;;;7.85;78.51;98330.28;5021417;28;20113;-82
2021/03/13 13:58:29;;;;;;;15.60;3.38;;;8.80;87.70;;;7.91;78.48;98340.22;5022036;28;20042;-82
2021/03/13 14:00:56;;;;;;;16.58;4.10;;;8.90;87.90;;;7.88;78.57;98352.34;5021887;28;20057;-81
2021/03/13 14:03:22;;;;;;;17.13;4.00;;;8.90;87.60;;;7.94;79.58;98347.91;5021479;28;20042;-82
2021/03/13 14:05:49;;;;;;;14.05;3.50;;;8.90;87.70;;;7.97;79.19;98350.19;5018708;28;20499;-81
2021/03/13 14:08:18;;;;;;;15.85;3.75;;;9.00;87.40;;;7.90;77.88;98344.84;5015004;28;20061;-81
2021/03/13 14:10:45;;;;;;;14.05;3.50;;;8.90;86.90;;;8.09;78.56;98337.59;5015984;28;20065;-81
2021/03/13 14:13:12;;;;;;;16.52;3.67;;;8.90;87.50;;;8.14;77.88;98345.03;5020523;28;20062;-80
2021/03/13 14:15:39;;;;;;;12.45;3.22;;;9.00;87.40;;;8.21;77.29;98343.09;5018915;28;20050;-84
2021/03/13 14:18:07;;;;;;;15.27;3.85;;;8.90;87.50;;;8.20;77.26;98355.78;5015325;28;20388;-81
2021/03/13 14:20:34;;;;;;;19.05;4.68;;;9.00;87.60;;;8.22;77.26;98364.56;5015652;28;20033;-82
2021/03/13 14:23:01;;;;;;;13.75;3.25;;;8.90;87.30;;;8.32;77.52;98358.63;5014175;28;20049;-81
2021/03/13 14:25:28;;;;;;;14.25;2.83;;;8.80;88.20;;;8.41;76.84;98364.56;5016691;28;20046;-82
2021/03/13 14:27:56;;;;;;;13.13;2.88;;;8.80;88.80;;;8.44;76.35;98385.03;5013953;28;20555;-81
2021/03/13 14:30:23;;;;;;;12.60;2.92;;;8.80;88.80;;;8.31;76.11;98383.22;5013571;28;20076;-83
2021/03/13 14:32:50;;;;;;;11.70;2.95;;;8.80;88.00;;;8.17;77.16;98369.81;5013422;28;20034;-83